VTSE/CJM METAR and TAF weather

Enter ICAO airport designator
Station Type Date Time Source
VTSE METAR 2021/10/22 11:00 UTC NOAA

VTSE 221100Z 00000KT 9999 FEW020 29/24 Q1010 NOSIG


Station Type Date Time Source
VTSE Decoded METAR 2021/10/22 11:00 UTC NOAA

Station name not available
Oct 22, 2021 - 07:00 AM EDT / 2021.10.22 1100 UTC
Wind: Calm:0
Visibility: greater than 7 mile(s):0
Sky conditions: mostly clear
Temperature: 84 F (29 C)
Dew Point: 75 F (24 C)
Relative Humidity: 74%
Pressure (altimeter): 29.83 in. Hg (1010 hPa)
ob: VTSE 221100Z 00000KT 9999 FEW020 29/24 Q1010 NOSIG
cycle: 11

Station Type Date Time Source
VTSE TAF 2021/10/22 18:00 UTC NOAA

TAF VTSE 221700Z 2218/2318 35003KT 8000 FEW020 SCT100
TEMPO 2300/2310 VRB15G25KT 4000 RA

Example: see airport list